: Got a VIN check, Warranty Question.



702CTSV
06-19-08, 10:46 AM
I got a VIN check done today from the sticky (Thanks for that by the way :) ) And now I have a question about a warranty that showed up on it. Is this warranty from cadillac or what? And if it is can someone from Lindsay or another dealer tell me what it covers or PM me the info? I purchased a warranty from the dealer I bought it from but I feel they are going to tell me to go fornicate myself with a broomstick when I take it in for this oil temp sensor issue.

Here is what my VIN check produced (Warranty in question is in red):

APPLICABLE WARRANTIES
Description Effective Date Effective Odometer End Date End Odometer
48/50000 BUMPER TO BUMPER LIMITED WARRANTY 03/10/2004 5 miles 03/10/2008 50005 miles
72/100000 SHEET METAL COVERAGE RUST THROUGH LIMITED WARRANTY 03/10/2004 5 miles 03/10/2010 100005 miles
96/80000 FEDERAL EMISSION CATALYTIC CONV. AND PCM 03/10/2004 5 miles 03/10/2012 80005 miles
48/50000 CALIFORNIA EMISSIONS 03/10/2004 5 miles 03/10/2008 50005 miles
84/70000 CALIFORNIA SELECT COMPONENT 03/10/2004 5 miles 03/10/2011 70005 miles
72/100000 LUXURY CERTIFIED PRE-OWNED LIMITED WARRANTY 03/10/2004 5 miles 03/10/2010 100005 miles

CLAIM HISTORY
R.O Date R.O Number Type Labor Operation Odometer Reading
03/18/2008 345043 # B7540 - MOLDING, WINDSHIELD REVEAL - R&R OR REPLACE 39675 miles
03/18/2008 345043 # Z7901 - 1-DAY COURTESY TRANSPORTATION 39675 miles
02/21/2008 343676 # N0761 - BULBS, STOP, TAIL, AND TURN LAMP (LEFT) - REPLACE 38866 miles
02/15/2008 343263 # J1507 - MOUNT, ENGINE - FRONT - BOTH - REPLACE 38735 miles
02/15/2008 343263 # Z7901 - 1-DAY COURTESY TRANSPORTATION 38735 miles
12/18/2007 340305 # F2154 - BUSHING, REAR DIFFERENTIAL CARRIER SUPPORT OR MOUNT - REPL 37128 miles
12/18/2007 340305 # B5450 - SUPPORT, REAR COMPARTMENT LID AND/OR TAILGATE/LIFTGATE COU 37128 miles
12/18/2007 340305 # Z7902 - 2-DAY COURTESY TRANSPORTATION 37128 miles
10/31/2007 337816 # J3100 - RADIATOR ASSEMBLY - REPLACE 35824 miles
10/31/2007 337816 # C4020 - TRIM ASSEMBLY, QUARTER - RIGHT - R&R OR REPLACE 35824 miles
10/31/2007 337816 # C4021 - TRIM ASSEMBLY, QUARTER - LEFT - R&R OR REPLACE 35824 miles
10/31/2007 337816 # C2870 - ROOF CONSOLE REPLACEMENT 35824 miles
10/31/2007 337816 # Z7902 - 2-DAY COURTESY TRANSPORTATION 35824 miles
07/23/2007 332085 # L1197 - FUEL LEVEL SENSOR REPLACEMENT 32163 miles
07/23/2007 332085 # E7012 - SWITCH AND/OR CONTROL, STEERING WHEEL MOUNTED - REPLACE 32163 miles
07/23/2007 332085 # Z7903 - 3-DAY COURTESY TRANSPORTATION 32163 miles
05/02/2007 327586 # Z6720 - CADILLAC-COST OF TECH. TO MAKE ROADSIDE SRVC CALLS 29187 miles
05/02/2007 327586 # N0110 - BATTERY - ONE - REPLACE 29187 miles
04/30/2007 M00350 # Z2085 - ROADSIDE SERVICE (PREMIUM) 28500 miles
08/02/2006 312324 # Z8015 - ROADSIDE SERVICE (FLAT TIRE) 19500 miles
07/26/2006 E96424 # Z2085 - ROADSIDE SERVICE (PREMIUM) 19500 miles
04/11/2006 305782 # N9516 - CONNECTOR, ENGINE OIL PRESSURE SENSOR - REPLACE 16560 miles
04/11/2006 305782 # Z7901 - 1-DAY COURTESY TRANSPORTATION 16560 miles
04/07/2006 305561 # D4440 - COMPRESSOR ASSEMBLY - REPLACE 16487 miles
04/07/2006 305561 # V1302 - 05004 - REPLACE SDM 16487 miles
04/07/2006 305561 # Z7903 - 3-DAY COURTESY TRANSPORTATION 16487 miles
10/17/2005 520351 # E0720 - SENSOR, LOW TIRE PRESSURE WARNING - FRONT - RIGHT - REPLAC 13304 miles
11/16/2004 504567 # V1228 - 04068 - REPLACE FF JUMPER PIPE ASSEMBLY 6955 miles
11/16/2004 504567 # Z7901 - 1-DAY COURTESY TRANSPORTATION 6955 miles
08/27/2004 500328 # V1232 - 04043 - INSPECT AND REPLACE BOTH FRONT LOWER CONTROL ARM ( 5716 miles
08/27/2004 500328 # Z7901 - 1-DAY COURTESY TRANSPORTATION 5716 miles
08/20/2004 499985 # N4199 - INSTRUMENT CLUSTER REPROGRAMMING WITH SPS 4077 miles
08/20/2004 499985 # Z7901 - 1-DAY COURTESY TRANSPORTATION 4077 miles
07/12/2004 497757 # J3100 - RADIATOR ASSEMBLY - REPLACE 3342 miles
07/12/2004 497757 # Z5001 - VIP FREIGHT/POSTAGE REIMBURESEMENT 3342 miles
02/06/2004 203935 # N6620 - WIRING AND/OR CONNECTOR - POWER & GROUNDS DISTRIBUTION - R 3 miles
02/06/2004 203935 D T2020 - TOWING 3 miles
02/06/2004 203935 # T2020 - TOWING 3 miles
02/04/2004 A57563 I Z7000 - PRE-DELIVERY INSPECTION - BASE TIME 0 miles

CTSV_510
06-19-08, 11:21 AM
That's the Cadillac certified warranty. There should be no problem getting the oil temp sensor replaced under it through your dealer, especially since the oil temp sensor is a known problem.

702CTSV
06-23-08, 06:07 PM
Thank you. I'm heading to the dealer in a little bit hoping they fix this stupid oil temp sensor.

Bigron
06-23-08, 07:16 PM
wait they sold you a warranty and it was already certified?

atdeneve
06-23-08, 09:06 PM
Get a refund on your warranty, since it's already certified.

702CTSV
06-24-08, 01:24 AM
Yea I'm going to go give the audi dealer I bought it from a piece of my mind when I get it back. I went to Cadillac of Las Vegas East today to drop it off for the oil temp sensor and to replace the 3rd brake light. They even gave me a free rental which makes me even more happy. (DTS is yuck though, im 21 not 80) So far I'm liking my cadillac purchase :)

korizzle
06-24-08, 01:37 AM
(DTS is yuck though, im 21 not 80)

a 21 year old girl? :p

just messin, man...enjoy the caddy! :thumbsup:

702CTSV
06-24-08, 01:41 AM
Yea since this is a forum of mainly older people I say yuck (Haven't really lurked around long enough to see if anybody gets offended by the swear words LOL). Dont know the response I would get if I said the DTS looks like twice stepped in dog$#!t :suspense:

Bigron
06-24-08, 09:58 AM
Almost all service contracts have a full refund time period, so just look on the contract for the cancelation procedure.